This is the latest recevied weather packets stored in our database for station/object KE8YTO. If no packets are shown the sender has not sent any weather packets the latest 10 day(s).
| Time | Temp. | Humidity | Pressure | Rain* | Wind** | Luminosity | Snow |
|---|---|---|---|---|---|---|---|
| 1777565423 | 11.11° C | 49% | 992.1 hPa | 0 mm | - | - | - |
| 1777564215 | 10.56° C | 55% | 992.2 hPa | 0 mm | - | - | - |
| 1777563025 | 10° C | 59% | 992.3 hPa | 0 mm | - | - | - |
| 1777560646 | 8.89° C | 65% | 992.4 hPa | 0 mm | - | - | - |
| 1777559418 | 7.78° C | 68% | 992.5 hPa | 0 mm | - | - | - |
| 1777558823 | 7.22° C | 71% | 992.5 hPa | 0 mm | - | - | - |
| 1777554621 | 6.67° C | 78% | 992 hPa | 0 mm | - | - | - |
| 1777552818 | 5.56° C | 82% | 991.9 hPa | 0.25 mm | - | - | - |
| 1777552243 | 5.56° C | 82% | 991.9 hPa | 0.25 mm | - | - | - |
| 1777539062 | 3.33° C | 88% | 991.5 hPa | 0 mm | - | - | - |
| 1777537219 | 3.89° C | 88% | 991.3 hPa | 0 mm | - | - | - |
| 1777536623 | 3.89° C | 88% | 991.4 hPa | 0 mm | - | - | - |
| 1777534225 | 3.89° C | 87% | 991.2 hPa | 0 mm | - | - | - |
| 1777528219 | 5° C | 92% | 991.4 hPa | 0 mm | - | - | - |
| 1777525226 | 5.56° C | 92% | 991.5 hPa | 0 mm | - | - | - |
| 1777524631 | 5.56° C | 93% | 991.4 hPa | 0 mm | - | - | - |
| 1777522827 | 5.56° C | 92% | 991.3 hPa | 0.25 mm | - | - | - |
| 1777521024 | 5.56° C | 91% | 991.3 hPa | 0.76 mm | - | - | - |
| 1777519815 | 5.56° C | 91% | 991.3 hPa | 0.51 mm | - | - | - |
| 1777516822 | 6.11° C | 87% | 991.2 hPa | 0.25 mm | - | - | - |
| 1777513822 | 6.11° C | 88% | 990.5 hPa | 0 mm | - | - | - |
| 1777509646 | 6.67° C | 84% | 989.7 hPa | 0 mm | - | - | - |
| 1777509031 | 7.22° C | 85% | 989.6 hPa | 0 mm | - | - | - |
| 1777507823 | 7.22° C | 85% | 989.4 hPa | 0 mm | - | - | - |
| 1777504829 | 7.78° C | 85% | 989.2 hPa | 0 mm | - | - | - |
* Rain latest hour (hover to see other rain measurements)
** Current wind speed in m/s (hover to see current wind gust speed)